Time;durP1;ratioP1;P1;durP2;ratioP2;P2;SDS_P1;SDS_P2;PMS_P1;PMS_P2;Temp;Humidity;BMP_temperature;BMP_pressure;BME280_temperature;BME280_humidity;BME280_pressure;Samples;Min_cycle;Max_cycle;Signal;HPM_P1;HPM_P2
2021/04/08 00:01:13;;;;;;;3.60;3.28;;;2.60;99.90;;;;;;5011832;28;20030;-73
2021/04/08 00:03:39;;;;;;;4.20;2.83;;;2.60;99.90;;;;;;5018650;28;20026;-74
2021/04/08 00:06:05;;;;;;;3.85;2.15;;;2.70;99.90;;;;;;4999586;28;20022;-75
2021/04/08 00:08:31;;;;;;;8.52;4.18;;;2.80;99.90;;;;;;5015942;28;20080;-75
2021/04/08 00:10:56;;;;;;;5.85;2.70;;;2.80;99.90;;;;;;5018257;28;20034;-74
2021/04/08 00:13:22;;;;;;;4.30;2.92;;;2.70;99.90;;;;;;5014444;28;20025;-74
2021/04/08 00:15:48;;;;;;;4.78;3.38;;;2.70;99.90;;;;;;5009887;28;20073;-75
2021/04/08 00:18:15;;;;;;;6.78;3.40;;;2.60;99.90;;;;;;5014674;28;20443;-73
2021/04/08 00:20:41;;;;;;;4.13;2.70;;;2.50;99.90;;;;;;5007015;28;20473;-74
2021/04/08 00:23:07;;;;;;;10.32;4.78;;;2.60;99.90;;;;;;4999752;28;20121;-74
2021/04/08 00:25:36;;;;;;;3.72;2.88;;;2.60;99.90;;;;;;5008082;28;20106;-74
2021/04/08 00:28:02;;;;;;;7.97;3.33;;;2.60;99.90;;;;;;5018063;28;20392;-74
2021/04/08 00:30:27;;;;;;;5.28;2.72;;;2.60;99.90;;;;;;5020537;28;20025;-74
2021/04/08 00:32:53;;;;;;;5.95;3.38;;;2.60;99.90;;;;;;5001912;28;20033;-74
2021/04/08 00:35:19;;;;;;;5.28;2.45;;;2.50;99.90;;;;;;5005686;28;20030;-74
2021/04/08 00:37:45;;;;;;;4.85;2.60;;;2.50;99.90;;;;;;5001188;28;20060;-73
2021/04/08 00:40:13;;;;;;;6.55;4.47;;;2.50;99.90;;;;;;5022024;28;20026;-73
2021/04/08 00:42:40;;;;;;;3.38;2.53;;;2.60;99.90;;;;;;5019004;28;20039;-74
2021/04/08 00:45:07;;;;;;;3.58;2.38;;;2.60;99.90;;;;;;5013473;28;20023;-73
2021/04/08 00:47:33;;;;;;;6.95;2.65;;;2.60;99.90;;;;;;5007539;28;20060;-73
2021/04/08 00:49:59;;;;;;;7.03;2.85;;;2.60;99.90;;;;;;5012999;28;20080;-75
2021/04/08 00:52:25;;;;;;;4.43;3.03;;;2.50;99.90;;;;;;5013878;28;20492;-74
2021/04/08 00:54:51;;;;;;;4.10;2.88;;;2.50;99.90;;;;;;5022641;28;20049;-74
2021/04/08 00:57:17;;;;;;;3.10;2.17;;;2.50;99.90;;;;;;5007245;28;20065;-73
2021/04/08 00:59:44;;;;;;;4.47;2.35;;;2.50;99.90;;;;;;5018370;28;20080;-73
2021/04/08 01:02:10;;;;;;;9.80;4.95;;;2.50;99.90;;;;;;4997763;28;20022;-74
2021/04/08 01:04:39;;;;;;;2.80;2.10;;;2.50;99.90;;;;;;5020370;28;20365;-74
2021/04/08 01:07:04;;;;;;;4.93;2.40;;;2.60;99.90;;;;;;5013340;28;20022;-74
2021/04/08 01:09:30;;;;;;;3.75;2.60;;;2.50;99.90;;;;;;5025121;28;20033;-74
2021/04/08 01:11:56;;;;;;;4.18;2.45;;;2.50;99.90;;;;;;5025218;28;20043;-74
2021/04/08 01:14:22;;;;;;;8.10;2.95;;;2.50;99.90;;;;;;5007836;28;20034;-74
2021/04/08 01:17:02;;;;;;;5.07;3.28;;;2.50;99.90;;;;;;5020347;28;20432;-73
2021/04/08 01:19:58;;;;;;;4.50;3.13;;;2.50;99.90;;;;;;5014190;28;20026;-74
2021/04/08 01:22:33;;;;;;;4.25;3.63;;;2.50;99.90;;;;;;5019164;28;20028;-74
2021/04/08 01:25:21;;;;;;;4.05;3.30;;;2.50;99.90;;;;;;5030032;28;20064;-73
2021/04/08 01:28:18;;;;;;;7.05;3.25;;;2.50;99.90;;;;;;5018433;28;20033;-73
2021/04/08 01:30:51;;;;;;;7.15;3.65;;;2.50;99.90;;;;;;5000795;28;20018;-73
2021/04/08 01:33:23;;;;;;;3.88;3.50;;;2.60;99.90;;;;;;5016333;28;20026;-74
2021/04/08 01:35:50;;;;;;;5.65;3.70;;;2.60;99.90;;;;;;5017159;28;20057;-74
2021/04/08 01:38:25;;;;;;;4.93;4.00;;;2.60;99.90;;;;;;5018749;28;20447;-74
2021/04/08 01:40:52;;;;;;;5.22;4.03;;;2.60;99.90;;;;;;5017231;28;20029;-74
2021/04/08 01:43:22;;;;;;;7.88;4.53;;;2.70;99.90;;;;;;5019314;28;20030;-74
2021/04/08 01:45:51;;;;;;;9.40;4.90;;;2.70;99.90;;;;;;5021330;28;20022;-74
2021/04/08 01:48:17;;;;;;;5.13;3.60;;;2.70;99.90;;;;;;5024968;28;20025;-75
2021/04/08 01:50:44;;;;;;;7.30;3.67;;;2.80;99.90;;;;;;5027742;28;20023;-74
2021/04/08 01:53:14;;;;;;;7.75;4.68;;;2.70;99.90;;;;;;5019000;28;20537;-73
2021/04/08 01:55:42;;;;;;;5.68;4.45;;;2.70;99.90;;;;;;5021032;28;20500;-74
2021/04/08 01:58:08;;;;;;;6.60;4.35;;;2.70;99.90;;;;;;5023120;28;20108;-73
2021/04/08 02:00:35;;;;;;;6.82;5.18;;;2.60;99.90;;;;;;5018210;28;20018;-74
2021/04/08 02:03:02;;;;;;;6.57;4.32;;;2.70;99.90;;;;;;5021070;28;20029;-74
2021/04/08 02:05:29;;;;;;;4.38;3.95;;;2.70;99.90;;;;;;5021263;28;20037;-73
2021/04/08 02:07:57;;;;;;;8.52;4.05;;;2.70;99.90;;;;;;5017339;28;20025;-73
2021/04/08 02:10:24;;;;;;;8.77;4.47;;;2.60;99.90;;;;;;5017904;28;20105;-75
2021/04/08 02:12:53;;;;;;;6.22;3.90;;;2.60;99.90;;;;;;5022277;28;20045;-74
2021/04/08 02:15:21;;;;;;;5.20;3.42;;;2.60;99.90;;;;;;5021959;28;20021;-73
2021/04/08 02:17:52;;;;;;;5.03;3.53;;;2.60;99.90;;;;;;5020023;28;20026;-73
2021/04/08 02:20:19;;;;;;;5.95;3.50;;;2.60;99.90;;;;;;5025931;28;20026;-73
2021/04/08 02:22:49;;;;;;;6.85;4.50;;;2.60;99.90;;;;;;5021289;28;20029;-74
2021/04/08 02:25:17;;;;;;;6.30;3.65;;;2.60;99.90;;;;;;5010572;28;20109;-74
2021/04/08 02:27:43;;;;;;;9.20;3.78;;;2.60;99.90;;;;;;5014542;28;20487;-74
2021/04/08 02:30:13;;;;;;;5.10;3.63;;;2.60;99.90;;;;;;5014744;28;20124;-74
2021/04/08 02:32:40;;;;;;;3.88;3.45;;;2.60;99.90;;;;;;5022939;28;20022;-75
2021/04/08 02:35:11;;;;;;;4.22;3.17;;;2.60;99.90;;;;;;5006704;28;20633;-73
2021/04/08 02:37:37;;;;;;;4.32;2.83;;;2.60;99.90;;;;;;5015581;28;20025;-73
2021/04/08 02:40:05;;;;;;;4.18;3.78;;;2.50;99.90;;;;;;5008018;28;20041;-73
2021/04/08 02:42:31;;;;;;;4.25;3.38;;;2.50;99.90;;;;;;5001791;28;20546;-74
2021/04/08 02:44:58;;;;;;;4.55;4.10;;;2.60;99.90;;;;;;5024364;28;20402;-73
2021/04/08 02:47:23;;;;;;;3.95;3.47;;;2.50;99.90;;;;;;5014316;28;20400;-74
2021/04/08 02:49:49;;;;;;;6.80;3.45;;;2.50;99.90;;;;;;5021466;28;20033;-73
2021/04/08 02:52:19;;;;;;;4.18;3.13;;;2.50;99.90;;;;;;5023484;28;20021;-73
2021/04/08 02:55:13;;;;;;;8.07;3.88;;;2.60;99.90;;;;;;5022786;28;20022;-75
2021/04/08 02:57:58;;;;;;;5.53;3.72;;;2.60;99.90;;;;;;5018238;28;20029;-74
2021/04/08 03:00:39;;;;;;;8.75;2.90;;;2.60;99.90;;;;;;5006101;28;20507;-73
2021/04/08 03:03:11;;;;;;;5.35;3.38;;;2.60;99.90;;;;;;5023114;28;20092;-75
2021/04/08 03:05:43;;;;;;;7.68;3.15;;;2.60;99.90;;;;;;5020643;28;20022;-74
2021/04/08 03:08:12;;;;;;;3.60;3.10;;;2.70;99.90;;;;;;5024009;28;20087;-73
2021/04/08 03:10:40;;;;;;;11.85;5.07;;;2.70;99.90;;;;;;5004031;28;20411;-74
2021/04/08 03:13:07;;;;;;;4.43;3.17;;;2.70;99.90;;;;;;5021382;28;20021;-75
2021/04/08 03:15:37;;;;;;;6.93;3.28;;;2.60;99.90;;;;;;5021828;28;20083;-74
2021/04/08 03:18:13;;;;;;;4.75;3.97;;;2.70;99.90;;;;;;5018675;28;20068;-74
2021/04/08 03:20:40;;;;;;;4.00;3.63;;;2.70;99.90;;;;;;5022005;28;20036;-73
2021/04/08 03:23:11;;;;;;;4.47;3.35;;;2.70;99.90;;;;;;5020796;28;20038;-74
2021/04/08 03:25:38;;;;;;;6.88;4.85;;;2.80;99.90;;;;;;5018019;28;20056;-75
2021/04/08 03:28:06;;;;;;;6.70;3.10;;;2.80;99.90;;;;;;5023637;28;20022;-74
2021/04/08 03:30:33;;;;;;;6.00;4.18;;;2.80;99.90;;;;;;5024355;28;20022;-74
2021/04/08 03:33:00;;;;;;;15.38;4.75;;;2.80;99.90;;;;;;5019014;28;20037;-74
2021/04/08 03:35:27;;;;;;;13.45;4.13;;;2.80;99.90;;;;;;5022212;28;20022;-74
2021/04/08 03:37:54;;;;;;;6.55;3.90;;;2.80;99.90;;;;;;5020445;28;20041;-74
2021/04/08 03:40:20;;;;;;;5.72;4.57;;;2.80;99.90;;;;;;5019353;28;20594;-74
2021/04/08 03:42:50;;;;;;;8.13;3.72;;;2.80;99.90;;;;;;5015886;28;20051;-73
2021/04/08 03:45:16;;;;;;;5.20;3.83;;;2.80;99.90;;;;;;5019990;28;20079;-74
2021/04/08 03:47:44;;;;;;;8.10;4.63;;;2.80;99.90;;;;;;5022754;28;20096;-75
2021/04/08 03:50:12;;;;;;;5.43;4.22;;;2.80;99.90;;;;;;4979556;28;20014;-74
2021/04/08 03:52:39;;;;;;;8.13;5.10;;;2.80;99.90;;;;;;5016023;28;20025;-75
2021/04/08 03:55:07;;;;;;;9.43;4.25;;;2.90;99.90;;;;;;5020156;28;20503;-75
2021/04/08 03:57:38;;;;;;;7.60;5.28;;;2.90;99.90;;;;;;5020847;28;20111;-74
2021/04/08 04:00:10;;;;;;;7.60;4.57;;;2.80;99.90;;;;;;5018612;28;20526;-73
2021/04/08 04:02:38;;;;;;;6.72;4.93;;;2.80;99.90;;;;;;4986905;28;20053;-73
2021/04/08 04:05:05;;;;;;;9.23;5.45;;;2.90;99.90;;;;;;5025090;28;20080;-75
2021/04/08 04:07:33;;;;;;;7.43;4.35;;;2.90;99.90;;;;;;5022502;28;20018;-74
2021/04/08 04:10:00;;;;;;;5.45;4.40;;;2.90;99.90;;;;;;5025364;28;20507;-73
2021/04/08 04:12:26;;;;;;;8.73;5.10;;;2.90;99.90;;;;;;5011468;28;20025;-74
2021/04/08 04:14:55;;;;;;;11.15;5.60;;;2.90;99.90;;;;;;5018216;28;20084;-74
2021/04/08 04:17:29;;;;;;;15.30;6.90;;;2.90;99.90;;;;;;5020328;28;20021;-74
2021/04/08 04:19:55;;;;;;;11.48;5.60;;;3.00;99.90;;;;;;5022024;28;20025;-75
2021/04/08 04:22:21;;;;;;;6.15;4.22;;;3.00;99.90;;;;;;5004157;28;20018;-74
2021/04/08 04:24:47;;;;;;;8.73;4.65;;;3.00;99.90;;;;;;5012968;28;20024;-74
2021/04/08 04:27:13;;;;;;;9.30;5.28;;;3.00;99.90;;;;;;5021092;28;20022;-74
2021/04/08 04:29:39;;;;;;;10.00;4.55;;;3.00;99.90;;;;;;5015952;28;20538;-74
2021/04/08 04:32:08;;;;;;;7.63;4.72;;;3.10;99.90;;;;;;5018528;28;20033;-73
2021/04/08 04:34:34;;;;;;;5.63;4.35;;;3.10;99.90;;;;;;5016778;28;20030;-74
2021/04/08 04:36:59;;;;;;;7.50;4.22;;;3.20;99.90;;;;;;5018825;28;20076;-74
2021/04/08 04:39:25;;;;;;;10.40;3.95;;;3.30;99.90;;;;;;5013048;28;20036;-74
2021/04/08 04:41:51;;;;;;;7.00;3.70;;;3.40;99.90;;;;;;5012331;28;20026;-74
2021/04/08 04:44:16;;;;;;;7.45;4.07;;;3.40;99.90;;;;;;5021190;28;20079;-73
2021/04/08 04:46:42;;;;;;;4.28;3.13;;;3.40;99.90;;;;;;5010857;28;20396;-74
2021/04/08 04:49:08;;;;;;;6.68;3.97;;;3.40;99.90;;;;;;5023353;28;20125;-74
2021/04/08 04:51:34;;;;;;;3.90;3.33;;;3.50;99.90;;;;;;5008828;28;20104;-74
2021/04/08 04:53:59;;;;;;;12.10;5.05;;;3.50;99.90;;;;;;5019588;28;20038;-74
2021/04/08 04:56:25;;;;;;;7.82;4.40;;;3.60;99.90;;;;;;5017445;28;20882;-74
2021/04/08 04:58:51;;;;;;;5.80;4.00;;;3.70;99.90;;;;;;5019447;28;20033;-73
2021/04/08 05:01:18;;;;;;;8.07;3.67;;;3.70;99.90;;;;;;5008445;28;20415;-74
2021/04/08 05:03:43;;;;;;;6.25;4.45;;;3.80;99.90;;;;;;5018949;28;20026;-75
2021/04/08 05:06:09;;;;;;;12.73;6.10;;;3.80;99.90;;;;;;5018698;28;20030;-70
2021/04/08 05:08:35;;;;;;;8.98;4.97;;;3.90;99.90;;;;;;5025731;28;20028;-71
2021/04/08 05:11:01;;;;;;;8.77;5.32;;;3.90;99.90;;;;;;4993347;28;20060;-68
2021/04/08 05:13:27;;;;;;;7.85;4.90;;;3.90;99.90;;;;;;5022166;28;20024;-68
2021/04/08 05:15:53;;;;;;;7.50;5.13;;;4.00;99.90;;;;;;5019560;28;20041;-67
2021/04/08 05:18:18;;;;;;;9.90;3.78;;;3.90;99.90;;;;;;5012799;28;20040;-69
2021/04/08 05:20:44;;;;;;;8.18;5.10;;;4.00;99.90;;;;;;5021478;28;20029;-68
2021/04/08 05:23:10;;;;;;;10.25;4.50;;;4.00;99.90;;;;;;5020313;28;20029;-69
2021/04/08 05:25:36;;;;;;;8.18;4.70;;;4.00;99.90;;;;;;5013656;28;20472;-70
2021/04/08 05:28:02;;;;;;;7.40;5.53;;;4.10;99.90;;;;;;5021795;28;20061;-69
2021/04/08 05:30:28;;;;;;;18.05;6.00;;;4.20;99.90;;;;;;5024047;28;20036;-69
2021/04/08 05:32:53;;;;;;;10.15;5.53;;;4.20;99.90;;;;;;5018132;28;20026;-70
2021/04/08 05:35:19;;;;;;;13.13;6.00;;;4.30;99.90;;;;;;5021101;28;20064;-69
2021/04/08 05:37:45;;;;;;;15.82;6.80;;;4.30;99.90;;;;;;5031843;28;20022;-69
2021/04/08 05:40:11;;;;;;;16.10;6.88;;;4.40;99.90;;;;;;5031841;28;20052;-69
2021/04/08 05:42:37;;;;;;;12.45;6.72;;;4.40;99.90;;;;;;5018119;28;20443;-69
2021/04/08 05:45:03;;;;;;;13.35;7.15;;;4.50;99.90;;;;;;5020397;28;20023;-71
2021/04/08 05:47:29;;;;;;;10.27;6.00;;;4.60;99.90;;;;;;5022455;28;20428;-69
2021/04/08 05:49:54;;;;;;;10.88;5.95;;;4.80;99.90;;;;;;5018727;28;20167;-69
2021/04/08 05:52:20;;;;;;;10.50;6.05;;;4.90;99.90;;;;;;5018178;28;20049;-68
2021/04/08 05:54:46;;;;;;;12.10;6.78;;;5.00;99.90;;;;;;5019578;28;20064;-68
2021/04/08 05:57:12;;;;;;;9.85;7.32;;;5.10;99.90;;;;;;5012444;28;20026;-70
2021/04/08 05:59:37;;;;;;;11.00;8.32;;;5.40;99.90;;;;;;5027695;28;20540;-69
2021/04/08 06:02:03;;;;;;;8.13;7.28;;;5.40;99.90;;;;;;5023709;28;20034;-69
2021/04/08 06:04:29;;;;;;;14.35;7.43;;;5.30;99.90;;;;;;5015789;28;20032;-68
2021/04/08 06:06:54;;;;;;;7.10;5.95;;;5.20;99.90;;;;;;5021827;28;20034;-70
2021/04/08 06:09:20;;;;;;;11.02;6.00;;;5.30;99.90;;;;;;5013338;28;20028;-69
2021/04/08 06:11:46;;;;;;;13.45;5.45;;;5.30;99.90;;;;;;5009971;28;20083;-69
2021/04/08 06:14:12;;;;;;;10.25;5.60;;;5.40;99.90;;;;;;5016831;28;20487;-69
2021/04/08 06:16:37;;;;;;;8.07;5.88;;;5.60;99.90;;;;;;5023641;28;20693;-70
2021/04/08 06:19:03;;;;;;;9.77;4.90;;;5.70;99.90;;;;;;5026035;28;20037;-70
2021/04/08 06:21:29;;;;;;;9.88;6.45;;;5.90;99.90;;;;;;5018828;28;20025;-70
2021/04/08 06:23:54;;;;;;;10.52;5.50;;;6.00;99.90;;;;;;5021040;28;20033;-69
2021/04/08 06:26:21;;;;;;;9.57;5.47;;;6.10;99.90;;;;;;5018903;28;20021;-70
2021/04/08 06:28:47;;;;;;;7.43;5.13;;;6.30;99.90;;;;;;5024507;28;20072;-71
2021/04/08 06:31:13;;;;;;;7.78;5.28;;;6.30;99.90;;;;;;5011879;28;20034;-69
2021/04/08 06:33:39;;;;;;;21.63;6.72;;;6.40;99.90;;;;;;5030345;28;20547;-69
2021/04/08 06:36:08;;;;;;;18.13;5.18;;;6.50;99.90;;;;;;5019601;28;20049;-68
2021/04/08 06:38:34;;;;;;;8.70;4.90;;;6.60;99.90;;;;;;5012789;28;20369;-71
2021/04/08 06:41:00;;;;;;;10.18;5.05;;;6.70;99.90;;;;;;5018529;28;20108;-69
2021/04/08 06:43:26;;;;;;;10.02;5.90;;;6.80;99.90;;;;;;5023295;28;20030;-69
2021/04/08 06:45:55;;;;;;;11.77;4.93;;;6.90;99.90;;;;;;5017559;28;20116;-69
2021/04/08 06:48:26;;;;;;;6.57;4.55;;;6.90;99.90;;;;;;5011233;28;20029;-69
2021/04/08 06:50:53;;;;;;;10.43;5.25;;;7.00;99.90;;;;;;5001868;28;20033;-70
2021/04/08 06:53:19;;;;;;;6.63;5.13;;;7.10;99.90;;;;;;5023031;28;20387;-69
2021/04/08 06:55:48;;;;;;;8.70;4.93;;;7.20;99.90;;;;;;5020861;28;20095;-70
2021/04/08 06:58:14;;;;;;;7.70;5.25;;;7.40;99.90;;;;;;5020312;28;20033;-70
2021/04/08 07:00:41;;;;;;;11.10;5.63;;;7.70;99.90;;;;;;5024751;28;20502;-68
2021/04/08 07:03:08;;;;;;;7.93;4.72;;;8.10;99.90;;;;;;5020707;28;20117;-69
2021/04/08 07:05:34;;;;;;;12.63;4.70;;;8.40;99.90;;;;;;5027352;28;20021;-70
2021/04/08 07:08:00;;;;;;;6.72;4.78;;;8.60;99.90;;;;;;5023569;28;20024;-70
2021/04/08 07:10:26;;;;;;;5.78;5.03;;;8.60;99.90;;;;;;5023908;28;20026;-72
2021/04/08 07:12:53;;;;;;;6.18;4.43;;;8.50;99.90;;;;;;5022226;28;20113;-70
2021/04/08 07:15:19;;;;;;;12.10;3.97;;;8.50;99.90;;;;;;5019977;28;20053;-72
2021/04/08 07:17:46;;;;;;;9.15;4.28;;;8.50;99.90;;;;;;5023030;28;20044;-70
2021/04/08 07:20:12;;;;;;;15.65;5.07;;;8.50;99.90;;;;;;5025066;28;20468;-70
2021/04/08 07:22:37;;;;;;;14.32;5.45;;;8.60;99.90;;;;;;5005537;28;20079;-69
2021/04/08 07:25:19;;;;;;;15.82;4.15;;;8.80;99.90;;;;;;5018909;28;20088;-71
2021/04/08 07:27:45;;;;;;;8.25;5.07;;;8.80;99.90;;;;;;5021299;28;20512;-70
2021/04/08 07:30:12;;;;;;;5.50;4.47;;;8.80;99.90;;;;;;5021294;28;20515;-70
2021/04/08 07:32:41;;;;;;;7.80;4.25;;;8.90;99.90;;;;;;5030423;28;20021;-68
2021/04/08 07:35:15;;;;;;;9.48;4.35;;;9.00;99.90;;;;;;5019642;28;20492;-69
2021/04/08 07:37:43;;;;;;;4.70;3.30;;;9.10;99.90;;;;;;5022508;28;20441;-69
2021/04/08 07:40:20;;;;;;;3.42;3.03;;;9.10;99.90;;;;;;5028332;28;20072;-68
2021/04/08 07:42:46;;;;;;;6.22;3.55;;;9.10;99.90;;;;;;5022171;28;20034;-72
2021/04/08 07:45:22;;;;;;;6.03;4.38;;;9.10;99.90;;;;;;5012397;28;20036;-70
2021/04/08 07:48:03;;;;;;;3.63;2.85;;;9.30;99.90;;;;;;5017519;28;20029;-71
2021/04/08 07:50:32;;;;;;;4.80;3.60;;;9.30;99.90;;;;;;5027921;28;20542;-70
2021/04/08 07:52:58;;;;;;;3.85;2.70;;;9.40;99.90;;;;;;5018839;28;20037;-69
2021/04/08 07:55:34;;;;;;;6.60;3.78;;;9.60;99.90;;;;;;5008717;28;20026;-70
2021/04/08 07:58:09;;;;;;;5.07;3.58;;;9.70;99.90;;;;;;5016107;28;20029;-69
2021/04/08 08:00:42;;;;;;;4.03;3.25;;;9.70;99.90;;;;;;5014081;28;20036;-69
2021/04/08 08:03:10;;;;;;;3.90;3.10;;;9.70;99.90;;;;;;5013223;28;20056;-69
2021/04/08 08:05:38;;;;;;;4.80;2.60;;;9.80;99.90;;;;;;5012061;28;20022;-70
2021/04/08 08:08:10;;;;;;;2.80;2.50;;;9.90;99.90;;;;;;5019764;28;20025;-70
2021/04/08 08:10:39;;;;;;;3.63;3.00;;;10.00;99.90;;;;;;5014448;28;20025;-68
2021/04/08 08:13:26;;;;;;;4.40;3.33;;;10.00;99.90;;;;;;5017808;28;20076;-68
2021/04/08 08:15:54;;;;;;;5.15;2.80;;;9.90;99.90;;;;;;5011680;28;20483;-68
2021/04/08 08:18:41;;;;;;;3.40;2.53;;;9.80;99.90;;;;;;5017598;28;20057;-69
2021/04/08 08:21:09;;;;;;;3.72;2.75;;;9.70;99.00;;;;;;5018621;28;20373;-69
2021/04/08 08:23:42;;;;;;;4.68;2.95;;;9.90;99.90;;;;;;5006677;28;20647;-68
2021/04/08 08:26:29;;;;;;;3.70;2.40;;;10.00;99.90;;;;;;5011858;28;20022;-71
2021/04/08 08:29:05;;;;;;;4.97;3.35;;;10.00;97.50;;;;;;5013788;28;20092;-71
2021/04/08 08:31:46;;;;;;;6.25;3.40;;;10.10;97.30;;;;;;5014502;28;20602;-69
2021/04/08 08:34:34;;;;;;;5.25;4.18;;;10.20;94.10;;;;;;5010191;28;20487;-69
2021/04/08 08:37:01;;;;;;;3.88;3.03;;;10.30;93.90;;;;;;5018428;28;20037;-69
2021/04/08 08:39:39;;;;;;;9.73;2.33;;;10.20;94.80;;;;;;5014328;28;20105;-68
2021/04/08 08:42:08;;;;;;;2.83;1.80;;;10.20;91.70;;;;;;5015079;28;20081;-69
2021/04/08 08:44:35;;;;;;;5.05;2.03;;;10.30;91.80;;;;;;5021934;28;20037;-68
2021/04/08 08:47:22;;;;;;;12.32;2.00;;;10.20;92.90;;;;;;5022946;28;20064;-68
2021/04/08 08:49:56;;;;;;;3.15;1.83;;;10.20;91.00;;;;;;5007452;28;20430;-68
2021/04/08 08:52:29;;;;;;;2.55;1.80;;;10.30;85.30;;;;;;5022649;28;20446;-67
2021/04/08 08:54:54;;;;;;;7.38;2.05;;;10.30;83.90;;;;;;5013629;28;20022;-69
2021/04/08 08:57:21;;;;;;;6.57;1.88;;;10.30;87.90;;;;;;5021701;28;20483;-67
2021/04/08 08:59:49;;;;;;;4.38;1.95;;;10.30;83.30;;;;;;5012598;28;20057;-68
2021/04/08 09:02:16;;;;;;;2.83;2.20;;;10.40;86.70;;;;;;5019964;28;20087;-68
2021/04/08 09:04:42;;;;;;;5.45;2.25;;;10.40;87.40;;;;;;5022141;28;20019;-68
2021/04/08 09:07:11;;;;;;;4.35;2.20;;;10.40;90.80;;;;;;5013472;28;20080;-70
2021/04/08 09:09:43;;;;;;;16.05;4.40;;;10.30;90.30;;;;;;5023798;28;20065;-68
2021/04/08 09:12:16;;;;;;;8.27;2.85;;;10.30;93.60;;;;;;5021790;28;20051;-68
2021/04/08 09:14:44;;;;;;;7.65;2.65;;;10.30;94.30;;;;;;5024333;28;20091;-68
2021/04/08 09:17:09;;;;;;;4.82;2.00;;;10.30;94.60;;;;;;5023843;28;20037;-70
2021/04/08 09:19:36;;;;;;;5.90;2.92;;;10.30;94.40;;;;;;5027496;28;20026;-69
2021/04/08 09:22:06;;;;;;;4.43;3.40;;;10.20;93.50;;;;;;5022777;28;20026;-69
2021/04/08 09:24:34;;;;;;;4.90;2.35;;;10.20;94.50;;;;;;5034338;28;20041;-69
2021/04/08 09:27:00;;;;;;;5.25;1.90;;;10.30;90.70;;;;;;5025495;28;20029;-68
2021/04/08 09:29:56;;;;;;;11.00;2.80;;;10.30;91.00;;;;;;5018571;28;20483;-69
2021/04/08 09:32:21;;;;;;;5.72;3.05;;;10.30;92.00;;;;;;5024698;28;20083;-68
2021/04/08 09:35:08;;;;;;;3.50;2.38;;;10.30;92.70;;;;;;5029655;28;20033;-68
2021/04/08 09:37:51;;;;;;;6.28;2.33;;;10.40;93.70;;;;;;5019407;28;20022;-69
2021/04/08 09:40:36;;;;;;;4.35;2.80;;;10.40;93.30;;;;;;4992601;28;20033;-69
2021/04/08 09:43:13;;;;;;;4.90;3.08;;;10.30;92.90;;;;;;4999326;28;20388;-68
2021/04/08 09:45:44;;;;;;;5.25;2.70;;;10.20;93.10;;;;;;5023347;28;20033;-70
2021/04/08 09:48:21;;;;;;;5.43;2.60;;;10.20;91.10;;;;;;5023163;28;20022;-69
2021/04/08 09:50:50;;;;;;;5.43;2.85;;;10.20;92.20;;;;;;5008681;28;20091;-70
2021/04/08 09:53:18;;;;;;;4.22;2.45;;;10.30;93.00;;;;;;5025233;28;20025;-69
2021/04/08 09:55:59;;;;;;;6.28;2.42;;;10.30;91.90;;;;;;5016024;28;20029;-70
2021/04/08 09:58:27;;;;;;;4.28;2.90;;;10.40;90.90;;;;;;5014367;28;20026;-69
2021/04/08 10:00:57;;;;;;;4.13;3.08;;;10.30;92.50;;;;;;5020063;28;20057;-70
2021/04/08 10:03:27;;;;;;;3.90;2.50;;;10.30;92.90;;;;;;5024420;28;20021;-69
2021/04/08 10:05:53;;;;;;;6.13;3.67;;;10.40;93.20;;;;;;5023220;28;20026;-69
2021/04/08 10:08:23;;;;;;;3.53;2.92;;;10.40;91.00;;;;;;5021714;28;20088;-69
2021/04/08 10:10:50;;;;;;;5.10;2.42;;;10.40;91.40;;;;;;5021197;28;20104;-70
2021/04/08 10:13:21;;;;;;;4.90;2.60;;;10.40;91.50;;;;;;5023196;28;20081;-68
2021/04/08 10:15:48;;;;;;;2.80;2.38;;;10.40;91.70;;;;;;5016682;28;20030;-69
2021/04/08 10:18:25;;;;;;;4.65;3.22;;;10.40;91.40;;;;;;5024800;28;20034;-70
2021/04/08 10:20:53;;;;;;;9.48;3.55;;;10.40;94.30;;;;;;5013963;28;20041;-69
2021/04/08 10:23:39;;;;;;;4.45;3.22;;;10.40;94.60;;;;;;5004030;28;20026;-70
2021/04/08 10:26:15;;;;;;;6.82;3.42;;;10.50;94.50;;;;;;5023816;28;20018;-69
2021/04/08 10:28:47;;;;;;;6.80;2.90;;;10.40;95.20;;;;;;5019167;28;20614;-70
2021/04/08 10:31:14;;;;;;;8.25;3.88;;;10.40;94.10;;;;;;5019240;28;20503;-69
2021/04/08 10:33:40;;;;;;;3.85;2.53;;;10.50;94.80;;;;;;5020347;28;20108;-69
2021/04/08 10:36:06;;;;;;;3.55;2.42;;;10.60;93.90;;;;;;5026763;28;20030;-69
2021/04/08 10:38:31;;;;;;;6.22;3.00;;;10.60;92.20;;;;;;5023668;28;20360;-70
2021/04/08 10:40:57;;;;;;;3.17;2.55;;;10.70;92.50;;;;;;5021782;28;20377;-69
2021/04/08 10:43:23;;;;;;;3.25;2.75;;;10.70;92.80;;;;;;5002409;28;20020;-70
2021/04/08 10:45:54;;;;;;;3.38;3.08;;;10.60;93.10;;;;;;5019772;28;20602;-70
2021/04/08 10:48:21;;;;;;;5.38;2.83;;;10.50;94.00;;;;;;5021664;28;20037;-70
2021/04/08 10:50:48;;;;;;;5.88;2.40;;;10.60;93.50;;;;;;5022261;28;20057;-69
2021/04/08 10:53:19;;;;;;;4.72;2.55;;;10.60;93.80;;;;;;5024922;28;20026;-71
2021/04/08 10:55:45;;;;;;;6.20;3.10;;;10.80;95.90;;;;;;5028122;28;20549;-68
2021/04/08 10:58:28;;;;;;;6.30;4.05;;;10.70;96.50;;;;;;5022468;28;20034;-69
2021/04/08 11:00:58;;;;;;;4.60;2.40;;;10.70;97.10;;;;;;5018660;28;20530;-68
2021/04/08 11:03:24;;;;;;;3.20;2.90;;;10.80;96.40;;;;;;5017158;28;20058;-69
2021/04/08 11:05:50;;;;;;;4.38;3.72;;;10.90;96.20;;;;;;5022900;28;20057;-69
2021/04/08 11:08:16;;;;;;;3.50;3.20;;;10.80;97.80;;;;;;5022153;28;20022;-69
2021/04/08 11:10:43;;;;;;;8.35;4.55;;;10.90;95.40;;;;;;5023289;28;20052;-69
2021/04/08 11:13:11;;;;;;;3.90;3.22;;;10.90;95.80;;;;;;5020664;28;20028;-70
2021/04/08 11:15:44;;;;;;;3.42;3.05;;;10.90;96.90;;;;;;5018551;28;20106;-70
2021/04/08 11:18:15;;;;;;;6.53;3.10;;;10.80;97.30;;;;;;5021091;28;20387;-68
2021/04/08 11:20:45;;;;;;;4.82;3.90;;;10.80;96.70;;;;;;5016711;28;20061;-68
2021/04/08 11:23:12;;;;;;;6.57;3.47;;;10.80;98.30;;;;;;5013743;28;20434;-71
2021/04/08 11:25:39;;;;;;;5.30;4.80;;;10.90;98.10;;;;;;5029082;28;20033;-70
2021/04/08 11:28:07;;;;;;;7.38;4.30;;;11.00;98.10;;;;;;5021520;28;20045;-69
2021/04/08 11:30:45;;;;;;;8.95;3.80;;;11.00;98.50;;;;;;5012178;28;20033;-69
2021/04/08 11:33:20;;;;;;;5.57;3.97;;;11.10;98.50;;;;;;5016115;28;20029;-69
2021/04/08 11:35:47;;;;;;;3.85;2.83;;;11.20;97.30;;;;;;5018418;28;20030;-70
2021/04/08 11:38:18;;;;;;;4.45;3.17;;;11.20;95.60;;;;;;5009942;28;20100;-71
2021/04/08 11:40:45;;;;;;;4.38;2.65;;;11.20;96.50;;;;;;5004932;28;20022;-69
2021/04/08 11:43:31;;;;;;;3.72;2.88;;;11.20;92.90;;;;;;5012784;28;20030;-70
2021/04/08 11:45:58;;;;;;;2.90;2.60;;;11.40;92.90;;;;;;5020383;28;20034;-69
2021/04/08 11:48:39;;;;;;;3.58;2.38;;;11.30;93.90;;;;;;5019838;28;20076;-69
2021/04/08 11:51:06;;;;;;;5.03;2.45;;;11.30;93.80;;;;;;5006743;28;20500;-68
2021/04/08 11:53:40;;;;;;;3.88;2.78;;;11.40;92.70;;;;;;5018160;28;20029;-68
2021/04/08 11:56:30;;;;;;;8.93;2.70;;;11.40;94.40;;;;;;5018503;28;20110;-69
2021/04/08 11:59:16;;;;;;;2.85;1.63;;;11.40;93.80;;;;;;5021735;28;20030;-68
2021/04/08 12:01:50;;;;;;;2.75;2.47;;;11.50;88.80;;;;;;5013143;28;20025;-69
2021/04/08 12:04:19;;;;;;;2.40;2.13;;;11.50;88.80;;;;;;5015516;28;20098;-69
2021/04/08 12:06:52;;;;;;;3.67;1.95;;;11.60;92.00;;;;;;5014707;28;20037;-68
2021/04/08 12:09:35;;;;;;;2.63;2.00;;;11.50;87.70;;;;;;5019597;28;20037;-69
2021/04/08 12:12:02;;;;;;;2.40;1.98;;;11.50;90.60;;;;;;5018506;28;20025;-69
2021/04/08 12:14:28;;;;;;;2.28;1.80;;;11.50;88.60;;;;;;5016576;28;20021;-69
2021/04/08 12:17:02;;;;;;;2.22;2.00;;;11.50;89.30;;;;;;5014315;28;20046;-68
2021/04/08 12:19:28;;;;;;;4.53;1.90;;;11.40;91.00;;;;;;5015702;28;20033;-70
2021/04/08 12:22:05;;;;;;;4.82;2.58;;;11.40;92.60;;;;;;5010579;28;20034;-70
2021/04/08 12:24:31;;;;;;;7.10;3.42;;;11.60;95.10;;;;;;5018485;28;20080;-69
2021/04/08 12:26:58;;;;;;;4.53;3.17;;;11.60;96.00;;;;;;5019236;28;20041;-70
2021/04/08 12:29:24;;;;;;;4.03;2.97;;;11.80;96.80;;;;;;5019481;28;20076;-72
2021/04/08 12:31:53;;;;;;;2.95;2.67;;;11.70;97.70;;;;;;5017488;28;20057;-72
2021/04/08 12:34:22;;;;;;;5.18;3.83;;;11.60;96.90;;;;;;5011362;28;20034;-68
2021/04/08 12:36:49;;;;;;;10.85;3.53;;;11.50;97.70;;;;;;5018052;28;20034;-68
2021/04/08 12:39:16;;;;;;;3.47;3.17;;;11.50;97.90;;;;;;5019873;28;20104;-71
2021/04/08 12:41:42;;;;;;;4.05;3.42;;;11.30;97.70;;;;;;5018552;28;20034;-70
2021/04/08 12:44:08;;;;;;;5.47;3.67;;;11.40;97.40;;;;;;5012985;28;20076;-68
2021/04/08 12:46:34;;;;;;;5.70;4.50;;;11.40;96.20;;;;;;5029553;28;20026;-71
2021/04/08 12:49:00;;;;;;;5.57;5.07;;;11.50;95.60;;;;;;5016176;28;20391;-70
2021/04/08 12:51:26;;;;;;;5.95;4.28;;;11.60;98.60;;;;;;5013852;28;20110;-68
2021/04/08 12:53:51;;;;;;;6.60;5.32;;;11.70;98.90;;;;;;5022232;28;20129;-68
2021/04/08 12:56:18;;;;;;;6.25;5.20;;;11.70;99.90;;;;;;5020496;28;20022;-69
2021/04/08 12:58:43;;;;;;;6.93;5.93;;;11.80;99.60;;;;;;5007739;28;20026;-69
2021/04/08 13:01:09;;;;;;;16.33;9.57;;;11.50;99.90;;;;;;5008932;28;20084;-71
2021/04/08 13:03:35;;;;;;;7.45;5.18;;;11.50;99.90;;;;;;5020187;28;20032;-70